LEBL/BCN METAR and TAF weather

Enter ICAO airport designator
Station Type Date Time Source
LEBL METAR 2021/02/25 16:00 UTC NOAA

LEBL 251600Z 22012KT CAVOK 14/11 Q1029 NOSIG


Station Type Date Time Source
LEBL Decoded METAR 2021/02/25 16:00 UTC NOAA

Barcelona / Aeropuerto, Spain (LEBL) 41-17N 002-04E 6M
Feb 25, 2021 - 11:00 AM EST / 2021.02.25 1600 UTC
Wind: from the SW (220 degrees) at 14 MPH (12 KT):0
Visibility: greater than 7 mile(s):0
Temperature: 57 F (14 C)
Dew Point: 51 F (11 C)
Relative Humidity: 82%
Pressure (altimeter): 30.39 in. Hg (1029 hPa)
ob: LEBL 251600Z 22012KT CAVOK 14/11 Q1029 NOSIG
cycle: 16

Station Type Date Time Source
LEBL TAF 2021/02/25 12:27 UTC NOAA

TAF LEBL 251100Z 2512/2612 19010KT 9999 SCT020 TX16/2512Z TN08/2606Z
BECMG 2521/2523 33005KT PROB40
TEMPO 2521/2601 BKN010

Example: see airport list